PST,Max TemperatureF,Mean TemperatureF,Min TemperatureF,Max Dew PointF,MeanDew PointF,Min DewpointF,Max Humidity, Mean Humidity, Min Humidity, Max Sea Level PressureIn, Mean Sea Level PressureIn, Min Sea Level PressureIn, Max VisibilityMiles, Mean VisibilityMiles, Min VisibilityMiles, Max Wind SpeedMPH, Mean Wind SpeedMPH, Max Gust SpeedMPH,PrecipitationIn, CloudCover, Events, WindDirDegrees
2011-11-1,48,38,29,25,20,15,77,54,29,30.61,30.51,30.34,10,10,10,7,4,,0.00,0,,262
2011-11-2,50,38,26,27,19,14,82,53,25,30.56,30.24,29.88,10,10,10,17,7,,0.00,1,,99
2011-11-3,43,38,32,39,32,15,100,82,33,29.86,29.80,29.77,10,8,4,14,7,,0.02,7,Rain,224
2011-11-4,41,35,31,35,33,29,100,95,62,29.78,29.76,29.74,10,8,5,9,4,,0.00,8,,295
2011-11-5,38,29,20,32,28,20,100,86,60,29.91,29.87,29.85,10,9,3,8,3,,0.00,2,,122
2011-11-6,37,35,35,27,26,25,70,65,60,30.01,30.01,30.01,7,7,7,4,4,,0.00,0,,-1
2011-11-7,38,30,21,36,31,21,100,91,80,30.33,30.25,30.22,10,10,10,13,5,,0.00,7,Rain,170
2011-11-8,46,39,32,39,34,32,100,87,60,30.37,30.31,30.25,10,9,4,13,8,,0.00,5,,186
2011-11-9,48,40,30,38,32,29,100,80,47,30.49,30.41,30.32,10,10,7,9,8,,0.00,2,,56
2011-11-10,51,38,26,36,26,24,100,69,35,30.26,30.11,29.97,10,10,9,15,5,,0.00,1,,178
2011-11-11,47,35,23,41,30,23,100,79,38,29.97,29.59,29.37,10,10,6,38,10,50,0.04,5,Rain,215
2011-11-12,37,31,25,36,31,25,100,98,70,29.76,29.61,29.42,10,5,0,29,18,40,0.07,8,Fog-Rain-Snow,251
2011-11-13,47,40,32,36,33,26,100,88,48,29.70,29.61,29.50,10,10,10,25,18,33,0.01,3,Snow,254
2011-11-14,45,33,21,36,27,15,100,78,38,30.03,29.76,29.64,10,10,10,26,15,37,0.00,3,Rain-Snow,277
2011-11-15,39,30,21,25,16,9,99,62,31,30.35,30.21,30.03,10,10,10,16,7,23,0.00,2,Snow,240
2011-11-16,35,26,16,36,23,11,100,87,64,30.35,30.09,29.69,10,8,2,18,8,24,0.04,5,Rain-Snow,106
2011-11-17,39,35,31,39,34,27,100,96,70,29.79,29.68,29.62,10,10,6,24,15,37,0.16,6,Rain-Snow,196
2011-11-18,33,27,21,34,30,21,100,100,99,29.77,29.61,29.55,10,6,1,13,7,,0.06,8,Rain-Snow,171
2011-11-19,23,22,20,23,22,20,100,100,99,29.98,29.87,29.77,10,8,1,13,10,,0.00,8,Snow,37
2011-11-20,27,24,22,27,24,22,100,100,100,30.04,29.98,29.96,10,7,0,9,4,,0.00,8,Fog-Rain,43
2011-11-21,39,32,26,37,31,26,100,99,87,30.04,29.89,29.81,10,7,1,17,7,23,0.16,8,Rain-Snow,132
2011-11-22,48,42,35,48,42,36,100,96,76,29.80,29.72,29.65,10,10,7,23,15,32,0.29,8,Rain,178
2011-11-23,55,46,37,47,37,27,100,74,35,29.73,29.62,29.53,10,10,9,34,16,52,0.20,8,Rain,201
2011-11-24,41,36,30,41,35,30,100,99,87,29.85,29.77,29.68,10,9,2,21,12,29,0.12,7,Rain-Snow,181
2011-11-25,39,34,28,36,27,21,100,78,49,30.59,30.30,29.74,10,10,10,25,16,30,0.00,1,Snow,230
2011-11-26,38,33,28,31,29,24,100,89,55,30.57,30.47,30.35,10,10,10,9,4,,0.00,5,,65
2011-11-27,49,38,28,40,30,26,100,73,44,30.34,30.16,30.00,10,10,10,22,9,31,0.00,5,Rain,177
2011-11-28,41,34,26,39,33,27,100,99,87,30.61,30.42,30.27,10,6,0,12,6,,0.00,4,Fog,155
2011-11-29,37,31,25,38,31,26,100,100,100,30.43,30.31,30.11,10,4,0,15,3,,0.00,5,Fog-Rain-Snow,55
2011-11-30,43,34,26,37,30,25,100,95,57,30.74,30.34,30.17,10,5,0,18,8,22,0.00,5,Fog-Snow,252